sensor_id;sensor_type;location;lat;lon;timestamp;pressure;altitude;pressure_sealevel;temperature
19666;BMP180;9980;51.020;7.772;2023-05-10T00:00:37;96728.00;;;17.30
19666;BMP180;9980;51.020;7.772;2023-05-10T00:03:04;96750.00;;;17.30
19666;BMP180;9980;51.020;7.772;2023-05-10T00:05:31;96741.00;;;17.20
19666;BMP180;9980;51.020;7.772;2023-05-10T00:07:57;96724.00;;;17.20
19666;BMP180;9980;51.020;7.772;2023-05-10T00:10:24;96741.00;;;17.10
19666;BMP180;9980;51.020;7.772;2023-05-10T00:12:50;96706.00;;;17.20
19666;BMP180;9980;51.020;7.772;2023-05-10T00:15:16;96722.00;;;17.20
19666;BMP180;9980;51.020;7.772;2023-05-10T00:17:43;96695.00;;;17.20
19666;BMP180;9980;51.020;7.772;2023-05-10T00:20:10;96726.00;;;17.20
19666;BMP180;9980;51.020;7.772;2023-05-10T00:22:36;96729.00;;;17.20
19666;BMP180;9980;51.020;7.772;2023-05-10T00:25:03;96719.00;;;17.20
19666;BMP180;9980;51.020;7.772;2023-05-10T00:27:29;96722.00;;;17.20
19666;BMP180;9980;51.020;7.772;2023-05-10T00:29:55;96726.00;;;17.20
19666;BMP180;9980;51.020;7.772;2023-05-10T00:32:21;96720.00;;;17.20
19666;BMP180;9980;51.020;7.772;2023-05-10T00:34:48;96710.00;;;17.20
19666;BMP180;9980;51.020;7.772;2023-05-10T00:37:14;96724.00;;;17.20
19666;BMP180;9980;51.020;7.772;2023-05-10T00:39:40;96724.00;;;17.20
19666;BMP180;9980;51.020;7.772;2023-05-10T00:42:06;96726.00;;;17.20
19666;BMP180;9980;51.020;7.772;2023-05-10T00:44:33;96701.00;;;17.20
19666;BMP180;9980;51.020;7.772;2023-05-10T00:47:00;96730.00;;;17.20
19666;BMP180;9980;51.020;7.772;2023-05-10T00:49:28;96716.00;;;17.20
19666;BMP180;9980;51.020;7.772;2023-05-10T00:51:54;96719.00;;;17.20
19666;BMP180;9980;51.020;7.772;2023-05-10T00:54:21;96731.00;;;17.20
19666;BMP180;9980;51.020;7.772;2023-05-10T00:56:47;96722.00;;;17.20
19666;BMP180;9980;51.020;7.772;2023-05-10T00:59:19;96714.00;;;17.20
19666;BMP180;9980;51.020;7.772;2023-05-10T01:01:46;96726.00;;;17.20
19666;BMP180;9980;51.020;7.772;2023-05-10T01:04:14;96729.00;;;17.20
19666;BMP180;9980;51.020;7.772;2023-05-10T01:06:42;96736.00;;;17.10
19666;BMP180;9980;51.020;7.772;2023-05-10T01:09:08;96721.00;;;17.10
19666;BMP180;9980;51.020;7.772;2023-05-10T01:11:37;96722.00;;;17.10
19666;BMP180;9980;51.020;7.772;2023-05-10T01:14:04;96729.00;;;17.10
19666;BMP180;9980;51.020;7.772;2023-05-10T01:16:38;96730.00;;;17.00
19666;BMP180;9980;51.020;7.772;2023-05-10T01:19:18;96735.00;;;17.00
19666;BMP180;9980;51.020;7.772;2023-05-10T01:25:11;96739.00;;;17.00
19666;BMP180;9980;51.020;7.772;2023-05-10T01:33:36;96746.00;;;16.90
19666;BMP180;9980;51.020;7.772;2023-05-10T01:36:28;96741.00;;;16.90
19666;BMP180;9980;51.020;7.772;2023-05-10T01:41:52;96729.00;;;16.90
19666;BMP180;9980;51.020;7.772;2023-05-10T01:45:03;96741.00;;;16.90
19666;BMP180;9980;51.020;7.772;2023-05-10T01:47:42;96743.00;;;16.90
19666;BMP180;9980;51.020;7.772;2023-05-10T01:50:18;96730.00;;;16.90
19666;BMP180;9980;51.020;7.772;2023-05-10T01:52:55;96750.00;;;16.90
19666;BMP180;9980;51.020;7.772;2023-05-10T01:55:28;96740.00;;;16.90
19666;BMP180;9980;51.020;7.772;2023-05-10T01:58:20;96755.00;;;16.80
19666;BMP180;9980;51.020;7.772;2023-05-10T02:00:49;96729.00;;;16.80
19666;BMP180;9980;51.020;7.772;2023-05-10T02:03:23;96733.00;;;16.80
19666;BMP180;9980;51.020;7.772;2023-05-10T02:05:52;96744.00;;;16.90
19666;BMP180;9980;51.020;7.772;2023-05-10T02:08:22;96752.00;;;16.90
19666;BMP180;9980;51.020;7.772;2023-05-10T02:10:53;96748.00;;;16.90
19666;BMP180;9980;51.020;7.772;2023-05-10T02:13:23;96743.00;;;16.90
19666;BMP180;9980;51.020;7.772;2023-05-10T02:15:53;96740.00;;;16.90
19666;BMP180;9980;51.020;7.772;2023-05-10T02:18:22;96742.00;;;16.90
19666;BMP180;9980;51.020;7.772;2023-05-10T02:20:51;96755.00;;;16.90
19666;BMP180;9980;51.020;7.772;2023-05-10T02:23:20;96752.00;;;16.90
19666;BMP180;9980;51.020;7.772;2023-05-10T02:25:48;96765.00;;;16.90
19666;BMP180;9980;51.020;7.772;2023-05-10T02:28:16;96747.00;;;16.90
19666;BMP180;9980;51.020;7.772;2023-05-10T02:30:44;96744.00;;;16.90
19666;BMP180;9980;51.020;7.772;2023-05-10T02:33:12;96735.00;;;16.90
19666;BMP180;9980;51.020;7.772;2023-05-10T02:35:38;96745.00;;;16.90
19666;BMP180;9980;51.020;7.772;2023-05-10T02:38:07;96758.00;;;16.90
19666;BMP180;9980;51.020;7.772;2023-05-10T02:40:34;96723.00;;;16.90
19666;BMP180;9980;51.020;7.772;2023-05-10T02:43:03;96729.00;;;16.90
19666;BMP180;9980;51.020;7.772;2023-05-10T02:45:34;96711.00;;;16.90
19666;BMP180;9980;51.020;7.772;2023-05-10T02:48:02;96735.00;;;16.90
19666;BMP180;9980;51.020;7.772;2023-05-10T02:50:32;96750.00;;;16.90
19666;BMP180;9980;51.020;7.772;2023-05-10T02:53:19;96744.00;;;16.90
19666;BMP180;9980;51.020;7.772;2023-05-10T02:55:52;96712.00;;;16.90
19666;BMP180;9980;51.020;7.772;2023-05-10T02:58:19;96755.00;;;16.90
19666;BMP180;9980;51.020;7.772;2023-05-10T03:00:45;96759.00;;;16.90
19666;BMP180;9980;51.020;7.772;2023-05-10T03:03:12;96770.00;;;16.90
19666;BMP180;9980;51.020;7.772;2023-05-10T03:05:38;96741.00;;;16.90
19666;BMP180;9980;51.020;7.772;2023-05-10T03:08:05;96772.00;;;16.90
19666;BMP180;9980;51.020;7.772;2023-05-10T03:10:44;96756.00;;;16.80
19666;BMP180;9980;51.020;7.772;2023-05-10T03:13:39;96770.00;;;16.90
19666;BMP180;9980;51.020;7.772;2023-05-10T03:16:15;96764.00;;;16.90
19666;BMP180;9980;51.020;7.772;2023-05-10T03:19:12;96770.00;;;16.90
19666;BMP180;9980;51.020;7.772;2023-05-10T03:21:47;96765.00;;;16.90
19666;BMP180;9980;51.020;7.772;2023-05-10T03:24:16;96770.00;;;16.90
19666;BMP180;9980;51.020;7.772;2023-05-10T03:26:47;96764.00;;;16.90
19666;BMP180;9980;51.020;7.772;2023-05-10T03:29:17;96761.00;;;16.90
19666;BMP180;9980;51.020;7.772;2023-05-10T03:31:44;96756.00;;;16.90
19666;BMP180;9980;51.020;7.772;2023-05-10T03:34:11;96774.00;;;16.90
19666;BMP180;9980;51.020;7.772;2023-05-10T03:36:37;96770.00;;;16.90
19666;BMP180;9980;51.020;7.772;2023-05-10T03:39:04;96761.00;;;16.90
19666;BMP180;9980;51.020;7.772;2023-05-10T03:41:30;96756.00;;;16.90
19666;BMP180;9980;51.020;7.772;2023-05-10T03:43:57;96750.00;;;16.90
19666;BMP180;9980;51.020;7.772;2023-05-10T03:46:23;96732.00;;;16.90
19666;BMP180;9980;51.020;7.772;2023-05-10T03:48:49;96740.00;;;16.90
19666;BMP180;9980;51.020;7.772;2023-05-10T03:51:16;96750.00;;;16.90
19666;BMP180;9980;51.020;7.772;2023-05-10T03:53:42;96775.00;;;16.90
19666;BMP180;9980;51.020;7.772;2023-05-10T03:56:09;96760.00;;;16.90
19666;BMP180;9980;51.020;7.772;2023-05-10T03:58:35;96769.00;;;16.90
19666;BMP180;9980;51.020;7.772;2023-05-10T04:01:02;96771.00;;;16.90
19666;BMP180;9980;51.020;7.772;2023-05-10T04:03:28;96775.00;;;16.90
19666;BMP180;9980;51.020;7.772;2023-05-10T04:06:02;96742.00;;;16.80
19666;BMP180;9980;51.020;7.772;2023-05-10T04:08:28;96759.00;;;16.90
19666;BMP180;9980;51.020;7.772;2023-05-10T04:11:09;96783.00;;;16.80
19666;BMP180;9980;51.020;7.772;2023-05-10T04:13:36;96795.00;;;16.90
19666;BMP180;9980;51.020;7.772;2023-05-10T04:16:03;96783.00;;;16.90
19666;BMP180;9980;51.020;7.772;2023-05-10T04:18:30;96795.00;;;16.90
19666;BMP180;9980;51.020;7.772;2023-05-10T04:20:57;96795.00;;;16.80
19666;BMP180;9980;51.020;7.772;2023-05-10T04:23:23;96777.00;;;16.80
19666;BMP180;9980;51.020;7.772;2023-05-10T04:25:50;96802.00;;;16.80
19666;BMP180;9980;51.020;7.772;2023-05-10T04:28:16;96801.00;;;16.80
19666;BMP180;9980;51.020;7.772;2023-05-10T04:30:42;96801.00;;;16.80
19666;BMP180;9980;51.020;7.772;2023-05-10T04:33:08;96810.00;;;16.90
19666;BMP180;9980;51.020;7.772;2023-05-10T04:35:35;96796.00;;;16.80
19666;BMP180;9980;51.020;7.772;2023-05-10T04:38:01;96798.00;;;16.80
19666;BMP180;9980;51.020;7.772;2023-05-10T04:40:27;96812.00;;;16.80
19666;BMP180;9980;51.020;7.772;2023-05-10T04:42:54;96804.00;;;16.90
19666;BMP180;9980;51.020;7.772;2023-05-10T04:45:20;96807.00;;;16.90
19666;BMP180;9980;51.020;7.772;2023-05-10T04:47:46;96805.00;;;16.90
19666;BMP180;9980;51.020;7.772;2023-05-10T04:50:12;96828.00;;;16.90
19666;BMP180;9980;51.020;7.772;2023-05-10T04:52:39;96830.00;;;16.90
19666;BMP180;9980;51.020;7.772;2023-05-10T04:55:05;96827.00;;;16.90
19666;BMP180;9980;51.020;7.772;2023-05-10T04:57:33;96830.00;;;16.90
19666;BMP180;9980;51.020;7.772;2023-05-10T05:00:00;96833.00;;;16.90
19666;BMP180;9980;51.020;7.772;2023-05-10T05:02:26;96831.00;;;16.90
19666;BMP180;9980;51.020;7.772;2023-05-10T05:04:55;96830.00;;;16.90
19666;BMP180;9980;51.020;7.772;2023-05-10T05:07:21;96845.00;;;16.90
19666;BMP180;9980;51.020;7.772;2023-05-10T05:09:48;96844.00;;;16.90
19666;BMP180;9980;51.020;7.772;2023-05-10T05:12:14;96837.00;;;16.90
19666;BMP180;9980;51.020;7.772;2023-05-10T05:14:41;96851.00;;;16.90
19666;BMP180;9980;51.020;7.772;2023-05-10T05:17:07;96847.00;;;16.90
19666;BMP180;9980;51.020;7.772;2023-05-10T05:19:34;96838.00;;;16.90
19666;BMP180;9980;51.020;7.772;2023-05-10T05:22:00;96852.00;;;16.90
19666;BMP180;9980;51.020;7.772;2023-05-10T05:24:26;96845.00;;;17.00
19666;BMP180;9980;51.020;7.772;2023-05-10T05:26:52;96856.00;;;17.00
19666;BMP180;9980;51.020;7.772;2023-05-10T05:29:18;96851.00;;;17.00
19666;BMP180;9980;51.020;7.772;2023-05-10T05:31:45;96849.00;;;17.00
19666;BMP180;9980;51.020;7.772;2023-05-10T05:34:11;96848.00;;;17.00
19666;BMP180;9980;51.020;7.772;2023-05-10T05:36:37;96845.00;;;17.10
19666;BMP180;9980;51.020;7.772;2023-05-10T05:39:07;96863.00;;;17.10
19666;BMP180;9980;51.020;7.772;2023-05-10T05:41:33;96861.00;;;17.10
19666;BMP180;9980;51.020;7.772;2023-05-10T05:44:00;96872.00;;;17.10
19666;BMP180;9980;51.020;7.772;2023-05-10T05:46:26;96870.00;;;17.10
19666;BMP180;9980;51.020;7.772;2023-05-10T05:48:52;96871.00;;;17.20
19666;BMP180;9980;51.020;7.772;2023-05-10T05:51:18;96878.00;;;17.20
19666;BMP180;9980;51.020;7.772;2023-05-10T05:53:45;96871.00;;;17.20
19666;BMP180;9980;51.020;7.772;2023-05-10T05:56:11;96883.00;;;17.20
19666;BMP180;9980;51.020;7.772;2023-05-10T05:58:37;96887.00;;;17.30
19666;BMP180;9980;51.020;7.772;2023-05-10T06:01:03;96883.00;;;17.30
19666;BMP180;9980;51.020;7.772;2023-05-10T06:03:30;96887.00;;;17.30
19666;BMP180;9980;51.020;7.772;2023-05-10T06:05:56;96898.00;;;17.30
19666;BMP180;9980;51.020;7.772;2023-05-10T06:08:22;96896.00;;;17.30
19666;BMP180;9980;51.020;7.772;2023-05-10T06:10:49;96894.00;;;17.30
19666;BMP180;9980;51.020;7.772;2023-05-10T06:13:15;96887.00;;;17.40
19666;BMP180;9980;51.020;7.772;2023-05-10T06:15:41;96898.00;;;17.40
19666;BMP180;9980;51.020;7.772;2023-05-10T06:18:07;96888.00;;;17.40
19666;BMP180;9980;51.020;7.772;2023-05-10T06:20:34;96884.00;;;17.50
19666;BMP180;9980;51.020;7.772;2023-05-10T06:23:00;96905.00;;;17.60
19666;BMP180;9980;51.020;7.772;2023-05-10T06:25:26;96899.00;;;17.60
19666;BMP180;9980;51.020;7.772;2023-05-10T06:27:53;96899.00;;;17.60
19666;BMP180;9980;51.020;7.772;2023-05-10T06:30:24;96909.00;;;17.70
19666;BMP180;9980;51.020;7.772;2023-05-10T06:32:53;96900.00;;;17.80
19666;BMP180;9980;51.020;7.772;2023-05-10T06:35:20;96898.00;;;17.80
19666;BMP180;9980;51.020;7.772;2023-05-10T06:37:46;96909.00;;;17.90
19666;BMP180;9980;51.020;7.772;2023-05-10T06:40:13;96915.00;;;17.90
19666;BMP180;9980;51.020;7.772;2023-05-10T06:42:39;96905.00;;;17.90
19666;BMP180;9980;51.020;7.772;2023-05-10T06:45:06;96912.00;;;18.00
19666;BMP180;9980;51.020;7.772;2023-05-10T06:47:33;96921.00;;;18.00
19666;BMP180;9980;51.020;7.772;2023-05-10T06:50:08;96918.00;;;18.00
19666;BMP180;9980;51.020;7.772;2023-05-10T06:52:35;96914.00;;;18.00
19666;BMP180;9980;51.020;7.772;2023-05-10T06:55:02;96928.00;;;18.00
19666;BMP180;9980;51.020;7.772;2023-05-10T06:57:29;96910.00;;;18.00
19666;BMP180;9980;51.020;7.772;2023-05-10T07:00:02;96912.00;;;18.00
19666;BMP180;9980;51.020;7.772;2023-05-10T07:02:30;96932.00;;;18.10
19666;BMP180;9980;51.020;7.772;2023-05-10T07:04:57;96922.00;;;18.00
19666;BMP180;9980;51.020;7.772;2023-05-10T07:07:26;96923.00;;;18.00
19666;BMP180;9980;51.020;7.772;2023-05-10T07:09:53;96924.00;;;18.00
19666;BMP180;9980;51.020;7.772;2023-05-10T07:12:22;96922.00;;;18.00
19666;BMP180;9980;51.020;7.772;2023-05-10T07:14:48;96929.00;;;18.00
19666;BMP180;9980;51.020;7.772;2023-05-10T07:17:14;96933.00;;;18.00
19666;BMP180;9980;51.020;7.772;2023-05-10T07:19:41;96939.00;;;18.00
19666;BMP180;9980;51.020;7.772;2023-05-10T07:22:07;96941.00;;;18.00
19666;BMP180;9980;51.020;7.772;2023-05-10T07:24:33;96938.00;;;18.00
19666;BMP180;9980;51.020;7.772;2023-05-10T07:27:00;96936.00;;;18.00
19666;BMP180;9980;51.020;7.772;2023-05-10T07:29:26;96937.00;;;17.90
19666;BMP180;9980;51.020;7.772;2023-05-10T07:31:53;96949.00;;;17.90
19666;BMP180;9980;51.020;7.772;2023-05-10T07:34:21;96947.00;;;17.90
19666;BMP180;9980;51.020;7.772;2023-05-10T07:36:47;96951.00;;;17.80
19666;BMP180;9980;51.020;7.772;2023-05-10T07:39:13;96944.00;;;17.80
19666;BMP180;9980;51.020;7.772;2023-05-10T07:41:52;96950.00;;;17.80
19666;BMP180;9980;51.020;7.772;2023-05-10T07:44:18;96945.00;;;17.80
19666;BMP180;9980;51.020;7.772;2023-05-10T07:46:47;96962.00;;;17.90
19666;BMP180;9980;51.020;7.772;2023-05-10T07:49:13;96958.00;;;17.90
19666;BMP180;9980;51.020;7.772;2023-05-10T07:51:39;96943.00;;;17.90
19666;BMP180;9980;51.020;7.772;2023-05-10T07:54:06;96942.00;;;17.90
19666;BMP180;9980;51.020;7.772;2023-05-10T07:56:32;96953.00;;;18.00
19666;BMP180;9980;51.020;7.772;2023-05-10T07:58:59;96954.00;;;18.00
19666;BMP180;9980;51.020;7.772;2023-05-10T08:01:30;96959.00;;;18.00
19666;BMP180;9980;51.020;7.772;2023-05-10T08:03:58;96960.00;;;18.10
19666;BMP180;9980;51.020;7.772;2023-05-10T08:06:24;96957.00;;;18.20
19666;BMP180;9980;51.020;7.772;2023-05-10T08:08:53;96950.00;;;18.30
19666;BMP180;9980;51.020;7.772;2023-05-10T08:11:20;96962.00;;;18.30
19666;BMP180;9980;51.020;7.772;2023-05-10T08:13:49;96973.00;;;18.40
19666;BMP180;9980;51.020;7.772;2023-05-10T08:16:17;96977.00;;;18.50
19666;BMP180;9980;51.020;7.772;2023-05-10T08:18:45;96959.00;;;18.60
19666;BMP180;9980;51.020;7.772;2023-05-10T08:21:13;96973.00;;;18.80
19666;BMP180;9980;51.020;7.772;2023-05-10T08:23:40;96958.00;;;18.90
19666;BMP180;9980;51.020;7.772;2023-05-10T08:26:06;96974.00;;;18.90
19666;BMP180;9980;51.020;7.772;2023-05-10T08:28:33;96952.00;;;19.00
19666;BMP180;9980;51.020;7.772;2023-05-10T08:30:59;96979.00;;;19.10
19666;BMP180;9980;51.020;7.772;2023-05-10T08:33:26;96963.00;;;19.20
19666;BMP180;9980;51.020;7.772;2023-05-10T08:35:52;96973.00;;;19.30
19666;BMP180;9980;51.020;7.772;2023-05-10T08:38:18;96978.00;;;19.30
19666;BMP180;9980;51.020;7.772;2023-05-10T08:40:46;96976.00;;;19.40
19666;BMP180;9980;51.020;7.772;2023-05-10T08:43:15;96977.00;;;19.40
19666;BMP180;9980;51.020;7.772;2023-05-10T08:45:44;96971.00;;;19.40
19666;BMP180;9980;51.020;7.772;2023-05-10T08:48:15;96981.00;;;19.50
19666;BMP180;9980;51.020;7.772;2023-05-10T08:50:44;96990.00;;;19.50
19666;BMP180;9980;51.020;7.772;2023-05-10T08:53:13;96996.00;;;19.50
19666;BMP180;9980;51.020;7.772;2023-05-10T08:55:40;97005.00;;;19.60
19666;BMP180;9980;51.020;7.772;2023-05-10T08:58:09;96999.00;;;19.60
19666;BMP180;9980;51.020;7.772;2023-05-10T09:00:36;97009.00;;;19.60
19666;BMP180;9980;51.020;7.772;2023-05-10T09:03:05;96999.00;;;19.60
19666;BMP180;9980;51.020;7.772;2023-05-10T09:05:33;97007.00;;;19.60
19666;BMP180;9980;51.020;7.772;2023-05-10T09:07:59;97000.00;;;19.60
19666;BMP180;9980;51.020;7.772;2023-05-10T09:10:27;97012.00;;;19.60
19666;BMP180;9980;51.020;7.772;2023-05-10T09:12:57;97002.00;;;19.60
19666;BMP180;9980;51.020;7.772;2023-05-10T09:15:25;97000.00;;;19.50
19666;BMP180;9980;51.020;7.772;2023-05-10T09:17:52;97029.00;;;19.50
19666;BMP180;9980;51.020;7.772;2023-05-10T09:20:18;97021.00;;;19.40
19666;BMP180;9980;51.020;7.772;2023-05-10T09:22:45;97014.00;;;19.40
19666;BMP180;9980;51.020;7.772;2023-05-10T09:25:16;97023.00;;;19.40
19666;BMP180;9980;51.020;7.772;2023-05-10T09:27:46;97021.00;;;19.40
19666;BMP180;9980;51.020;7.772;2023-05-10T09:30:27;97025.00;;;19.40
19666;BMP180;9980;51.020;7.772;2023-05-10T09:32:55;97015.00;;;19.50
19666;BMP180;9980;51.020;7.772;2023-05-10T09:35:25;97022.00;;;19.50
19666;BMP180;9980;51.020;7.772;2023-05-10T09:37:59;97025.00;;;19.60
19666;BMP180;9980;51.020;7.772;2023-05-10T09:40:28;97031.00;;;19.70
19666;BMP180;9980;51.020;7.772;2023-05-10T09:43:07;97015.00;;;19.70
19666;BMP180;9980;51.020;7.772;2023-05-10T09:45:35;97034.00;;;19.70
19666;BMP180;9980;51.020;7.772;2023-05-10T09:48:05;97029.00;;;19.80
19666;BMP180;9980;51.020;7.772;2023-05-10T09:50:32;97036.00;;;19.90
19666;BMP180;9980;51.020;7.772;2023-05-10T09:53:00;97028.00;;;19.90
19666;BMP180;9980;51.020;7.772;2023-05-10T09:55:45;97017.00;;;19.90
19666;BMP180;9980;51.020;7.772;2023-05-10T09:58:13;97024.00;;;20.00
19666;BMP180;9980;51.020;7.772;2023-05-10T10:00:43;97036.00;;;20.10
19666;BMP180;9980;51.020;7.772;2023-05-10T10:03:19;97025.00;;;20.10
19666;BMP180;9980;51.020;7.772;2023-05-10T10:05:48;97026.00;;;20.20
19666;BMP180;9980;51.020;7.772;2023-05-10T10:08:15;97027.00;;;20.30
19666;BMP180;9980;51.020;7.772;2023-05-10T10:10:42;97008.00;;;20.40
19666;BMP180;9980;51.020;7.772;2023-05-10T10:13:10;97021.00;;;20.40
19666;BMP180;9980;51.020;7.772;2023-05-10T10:15:37;97020.00;;;20.50
19666;BMP180;9980;51.020;7.772;2023-05-10T10:18:05;97029.00;;;20.60
19666;BMP180;9980;51.020;7.772;2023-05-10T10:20:31;97020.00;;;20.70
19666;BMP180;9980;51.020;7.772;2023-05-10T10:22:58;97023.00;;;20.80
19666;BMP180;9980;51.020;7.772;2023-05-10T10:25:25;97019.00;;;20.90
19666;BMP180;9980;51.020;7.772;2023-05-10T10:33:46;97032.00;;;21.10
19666;BMP180;9980;51.020;7.772;2023-05-10T10:36:18;97024.00;;;21.20
19666;BMP180;9980;51.020;7.772;2023-05-10T10:41:34;97029.00;;;21.40
19666;BMP180;9980;51.020;7.772;2023-05-10T10:50:05;97033.00;;;21.70
19666;BMP180;9980;51.020;7.772;2023-05-10T10:52:44;97027.00;;;21.80
19666;BMP180;9980;51.020;7.772;2023-05-10T10:55:18;97030.00;;;21.90
19666;BMP180;9980;51.020;7.772;2023-05-10T10:57:52;97025.00;;;22.00
19666;BMP180;9980;51.020;7.772;2023-05-10T11:00:27;97021.00;;;22.10
19666;BMP180;9980;51.020;7.772;2023-05-10T11:03:09;97031.00;;;22.20
19666;BMP180;9980;51.020;7.772;2023-05-10T11:05:47;97033.00;;;22.30
19666;BMP180;9980;51.020;7.772;2023-05-10T11:08:28;97038.00;;;22.30
19666;BMP180;9980;51.020;7.772;2023-05-10T11:13:41;97053.00;;;22.30
19666;BMP180;9980;51.020;7.772;2023-05-10T11:16:19;97052.00;;;22.20
19666;BMP180;9980;51.020;7.772;2023-05-10T11:19:04;97054.00;;;22.20
19666;BMP180;9980;51.020;7.772;2023-05-10T11:21:32;97052.00;;;22.10
19666;BMP180;9980;51.020;7.772;2023-05-10T11:24:03;97042.00;;;22.00
19666;BMP180;9980;51.020;7.772;2023-05-10T11:26:38;97054.00;;;21.90
19666;BMP180;9980;51.020;7.772;2023-05-10T11:29:04;97054.00;;;21.80
19666;BMP180;9980;51.020;7.772;2023-05-10T11:31:31;97064.00;;;21.70
19666;BMP180;9980;51.020;7.772;2023-05-10T11:33:59;97055.00;;;21.60
19666;BMP180;9980;51.020;7.772;2023-05-10T11:36:32;97056.00;;;21.60
19666;BMP180;9980;51.020;7.772;2023-05-10T11:38:59;97078.00;;;21.50
19666;BMP180;9980;51.020;7.772;2023-05-10T11:41:29;97074.00;;;21.40
19666;BMP180;9980;51.020;7.772;2023-05-10T11:43:57;97070.00;;;21.40
19666;BMP180;9980;51.020;7.772;2023-05-10T11:46:26;97085.00;;;21.40
19666;BMP180;9980;51.020;7.772;2023-05-10T11:49:01;97073.00;;;21.30
19666;BMP180;9980;51.020;7.772;2023-05-10T11:51:27;97087.00;;;21.30
19666;BMP180;9980;51.020;7.772;2023-05-10T11:53:56;97074.00;;;21.20
19666;BMP180;9980;51.020;7.772;2023-05-10T11:56:23;97078.00;;;21.20
19666;BMP180;9980;51.020;7.772;2023-05-10T11:58:57;97082.00;;;21.10
19666;BMP180;9980;51.020;7.772;2023-05-10T12:01:28;97085.00;;;21.10
19666;BMP180;9980;51.020;7.772;2023-05-10T12:03:57;97084.00;;;21.00
19666;BMP180;9980;51.020;7.772;2023-05-10T12:06:30;97092.00;;;21.00
19666;BMP180;9980;51.020;7.772;2023-05-10T12:08:57;97102.00;;;21.00
19666;BMP180;9980;51.020;7.772;2023-05-10T12:11:26;97083.00;;;20.90
19666;BMP180;9980;51.020;7.772;2023-05-10T12:13:55;97096.00;;;20.70
19666;BMP180;9980;51.020;7.772;2023-05-10T12:16:25;97087.00;;;20.80
19666;BMP180;9980;51.020;7.772;2023-05-10T12:18:58;97102.00;;;20.70
19666;BMP180;9980;51.020;7.772;2023-05-10T12:21:27;97105.00;;;20.70
19666;BMP180;9980;51.020;7.772;2023-05-10T12:23:59;97106.00;;;20.60
19666;BMP180;9980;51.020;7.772;2023-05-10T12:26:27;97105.00;;;20.50
19666;BMP180;9980;51.020;7.772;2023-05-10T12:28:55;97112.00;;;20.50
19666;BMP180;9980;51.020;7.772;2023-05-10T12:31:21;97107.00;;;20.40
19666;BMP180;9980;51.020;7.772;2023-05-10T12:33:48;97105.00;;;20.40
19666;BMP180;9980;51.020;7.772;2023-05-10T12:36:16;97105.00;;;20.30
19666;BMP180;9980;51.020;7.772;2023-05-10T12:38:46;97115.00;;;20.30
19666;BMP180;9980;51.020;7.772;2023-05-10T12:41:17;97109.00;;;20.30
19666;BMP180;9980;51.020;7.772;2023-05-10T12:43:44;97119.00;;;20.30
19666;BMP180;9980;51.020;7.772;2023-05-10T12:46:16;97124.00;;;20.30
19666;BMP180;9980;51.020;7.772;2023-05-10T12:48:44;97124.00;;;20.30
19666;BMP180;9980;51.020;7.772;2023-05-10T12:51:12;97123.00;;;20.30
19666;BMP180;9980;51.020;7.772;2023-05-10T12:53:41;97123.00;;;20.30
19666;BMP180;9980;51.020;7.772;2023-05-10T12:56:11;97117.00;;;20.30
19666;BMP180;9980;51.020;7.772;2023-05-10T12:58:38;97121.00;;;20.30
19666;BMP180;9980;51.020;7.772;2023-05-10T13:01:05;97129.00;;;20.30
19666;BMP180;9980;51.020;7.772;2023-05-10T13:03:32;97117.00;;;20.30
19666;BMP180;9980;51.020;7.772;2023-05-10T13:05:58;97123.00;;;20.40
19666;BMP180;9980;51.020;7.772;2023-05-10T13:08:25;97111.00;;;20.40
19666;BMP180;9980;51.020;7.772;2023-05-10T13:10:51;97123.00;;;20.40
19666;BMP180;9980;51.020;7.772;2023-05-10T13:13:17;97124.00;;;20.50
19666;BMP180;9980;51.020;7.772;2023-05-10T13:15:44;97119.00;;;20.60
19666;BMP180;9980;51.020;7.772;2023-05-10T13:18:10;97111.00;;;20.70
19666;BMP180;9980;51.020;7.772;2023-05-10T13:20:37;97092.00;;;20.80
19666;BMP180;9980;51.020;7.772;2023-05-10T13:23:03;97124.00;;;20.90
19666;BMP180;9980;51.020;7.772;2023-05-10T13:25:29;97126.00;;;20.90
19666;BMP180;9980;51.020;7.772;2023-05-10T13:27:56;97120.00;;;21.00
19666;BMP180;9980;51.020;7.772;2023-05-10T13:30:22;97125.00;;;21.10
19666;BMP180;9980;51.020;7.772;2023-05-10T13:32:49;97121.00;;;21.10
19666;BMP180;9980;51.020;7.772;2023-05-10T13:35:16;97132.00;;;21.20
19666;BMP180;9980;51.020;7.772;2023-05-10T13:37:42;97131.00;;;21.20
19666;BMP180;9980;51.020;7.772;2023-05-10T13:40:08;97120.00;;;21.20
19666;BMP180;9980;51.020;7.772;2023-05-10T13:42:35;97121.00;;;21.30
19666;BMP180;9980;51.020;7.772;2023-05-10T13:45:01;97116.00;;;21.30
19666;BMP180;9980;51.020;7.772;2023-05-10T13:47:28;97134.00;;;21.30
19666;BMP180;9980;51.020;7.772;2023-05-10T13:49:54;97136.00;;;21.30
19666;BMP180;9980;51.020;7.772;2023-05-10T13:52:21;97121.00;;;21.30
19666;BMP180;9980;51.020;7.772;2023-05-10T13:54:47;97118.00;;;21.40
19666;BMP180;9980;51.020;7.772;2023-05-10T13:57:14;97137.00;;;21.50
19666;BMP180;9980;51.020;7.772;2023-05-10T13:59:42;97123.00;;;21.50
19666;BMP180;9980;51.020;7.772;2023-05-10T14:02:08;97129.00;;;21.50
19666;BMP180;9980;51.020;7.772;2023-05-10T14:04:35;97127.00;;;21.50
19666;BMP180;9980;51.020;7.772;2023-05-10T14:07:01;97114.00;;;21.60
19666;BMP180;9980;51.020;7.772;2023-05-10T14:09:27;97123.00;;;21.60
19666;BMP180;9980;51.020;7.772;2023-05-10T14:11:53;97123.00;;;21.60
19666;BMP180;9980;51.020;7.772;2023-05-10T14:14:20;97105.00;;;21.60
19666;BMP180;9980;51.020;7.772;2023-05-10T14:16:46;97114.00;;;21.60
19666;BMP180;9980;51.020;7.772;2023-05-10T14:19:13;97113.00;;;21.60
19666;BMP180;9980;51.020;7.772;2023-05-10T14:21:39;97127.00;;;21.60
19666;BMP180;9980;51.020;7.772;2023-05-10T14:24:06;97118.00;;;21.50
19666;BMP180;9980;51.020;7.772;2023-05-10T14:26:33;97117.00;;;21.50
19666;BMP180;9980;51.020;7.772;2023-05-10T14:29:00;97120.00;;;21.50
19666;BMP180;9980;51.020;7.772;2023-05-10T14:31:26;97126.00;;;21.50
19666;BMP180;9980;51.020;7.772;2023-05-10T14:33:53;97135.00;;;21.50
19666;BMP180;9980;51.020;7.772;2023-05-10T14:36:19;97127.00;;;21.50
19666;BMP180;9980;51.020;7.772;2023-05-10T14:38:45;97126.00;;;21.40
19666;BMP180;9980;51.020;7.772;2023-05-10T14:41:12;97133.00;;;21.40
19666;BMP180;9980;51.020;7.772;2023-05-10T14:43:41;97120.00;;;21.40
19666;BMP180;9980;51.020;7.772;2023-05-10T14:46:07;97133.00;;;21.40
19666;BMP180;9980;51.020;7.772;2023-05-10T14:48:35;97136.00;;;21.40
19666;BMP180;9980;51.020;7.772;2023-05-10T14:51:01;97125.00;;;21.40
19666;BMP180;9980;51.020;7.772;2023-05-10T14:53:27;97131.00;;;21.40
19666;BMP180;9980;51.020;7.772;2023-05-10T14:55:54;97132.00;;;21.40
19666;BMP180;9980;51.020;7.772;2023-05-10T14:58:23;97130.00;;;21.40